createdAt,value
2023-03-16T00:02:19.714Z,99269.02
2023-03-16T00:04:47.982Z,99270.30
2023-03-16T00:07:16.341Z,99274.52
2023-03-16T00:09:44.711Z,99277.86
2023-03-16T00:12:18.411Z,99277.27
2023-03-16T00:14:48.457Z,99278.11
2023-03-16T00:17:20.267Z,99278.84
2023-03-16T00:19:55.228Z,99281.79
2023-03-16T00:22:26.583Z,99284.23
2023-03-16T00:24:55.762Z,99284.21
2023-03-16T00:27:25.621Z,99287.69
2023-03-16T00:29:57.350Z,99289.42
2023-03-16T00:32:28.844Z,99297.24
2023-03-16T00:34:57.371Z,99297.20
2023-03-16T00:37:27.345Z,99292.77
2023-03-16T00:39:56.466Z,99295.48
2023-03-16T00:42:27.805Z,99296.61
2023-03-16T00:44:57.861Z,99301.03
2023-03-16T00:47:29.372Z,99302.16
2023-03-16T00:49:58.742Z,99302.55
2023-03-16T00:52:28.083Z,99302.48
2023-03-16T00:54:56.661Z,99299.96
2023-03-16T00:57:27.743Z,99303.73
2023-03-16T00:59:56.796Z,99306.99
2023-03-16T01:02:25.246Z,99308.02
2023-03-16T01:04:54.773Z,99312.33
2023-03-16T01:07:23.199Z,99316.30
2023-03-16T01:09:52.367Z,99316.40
2023-03-16T01:12:20.778Z,99320.22
2023-03-16T01:14:48.992Z,99318.95
2023-03-16T01:17:18.109Z,99325.38
2023-03-16T01:19:46.408Z,99331.41
2023-03-16T01:22:15.503Z,99337.30
2023-03-16T01:24:47.562Z,99340.93
2023-03-16T01:27:15.828Z,99342.56
2023-03-16T01:29:44.520Z,99341.11
2023-03-16T01:32:13.738Z,99339.66
2023-03-16T01:34:42.133Z,99342.10
2023-03-16T01:37:12.704Z,99339.23
2023-03-16T01:40:02.384Z,99339.30
2023-03-16T01:42:30.689Z,99340.44
2023-03-16T01:45:02.263Z,99341.23
2023-03-16T01:47:39.643Z,99340.29
2023-03-16T01:50:13.642Z,99341.85
2023-03-16T01:52:43.182Z,99343.91
2023-03-16T01:55:14.076Z,99353.14
2023-03-16T01:57:46.821Z,99354.36
2023-03-16T02:00:20.062Z,99358.09
2023-03-16T02:03:06.067Z,99358.02
2023-03-16T02:06:01.150Z,99356.73
2023-03-16T02:08:31.715Z,99360.89
2023-03-16T02:11:00.917Z,99362.20
2023-03-16T02:13:40.829Z,99365.15
2023-03-16T02:16:09.360Z,99368.93
2023-03-16T02:18:37.866Z,99368.62
2023-03-16T02:21:44.801Z,99376.12
2023-03-16T02:24:13.047Z,99378.17
2023-03-16T02:27:00.196Z,99375.87
2023-03-16T02:29:54.411Z,99381.84
2023-03-16T02:32:25.326Z,99386.02
2023-03-16T02:34:54.952Z,99383.59
2023-03-16T02:37:23.494Z,99384.63
2023-03-16T02:39:51.732Z,99390.33
2023-03-16T02:42:23.296Z,99389.02
2023-03-16T02:44:58.127Z,99389.87
2023-03-16T02:47:43.751Z,99394.38
2023-03-16T02:50:12.979Z,99399.48
2023-03-16T02:52:42.485Z,99410.61
2023-03-16T02:55:11.066Z,99415.34
2023-03-16T02:57:39.320Z,99415.70
2023-03-16T03:00:17.166Z,99423.33
2023-03-16T03:02:46.287Z,99425.55
2023-03-16T03:05:14.712Z,99423.41
2023-03-16T03:07:43.203Z,99424.92
2023-03-16T03:10:11.853Z,99423.97
2023-03-16T03:12:40.113Z,99431.03
2023-03-16T03:15:10.658Z,99431.45
2023-03-16T03:17:51.091Z,99430.48
2023-03-16T03:20:19.865Z,99435.20
2023-03-16T03:22:50.007Z,99436.39
2023-03-16T03:25:20.617Z,99439.36
2023-03-16T03:27:51.022Z,99442.88
2023-03-16T03:30:24.496Z,99445.73
2023-03-16T03:32:52.953Z,99446.89
2023-03-16T03:35:22.541Z,99453.14
2023-03-16T03:37:51.302Z,99459.34
2023-03-16T03:40:20.729Z,99460.13
2023-03-16T03:42:52.244Z,99464.36
2023-03-16T03:45:20.729Z,99464.58
2023-03-16T03:47:48.972Z,99470.34
2023-03-16T03:50:21.182Z,99469.11
2023-03-16T03:53:08.006Z,99467.69
2023-03-16T03:55:45.088Z,99470.98
2023-03-16T03:58:13.452Z,99473.98
2023-03-16T04:00:41.727Z,99470.86
2023-03-16T04:03:10.203Z,99473.66
2023-03-16T04:05:43.921Z,99476.34
2023-03-16T04:08:13.102Z,99481.27
2023-03-16T04:10:41.504Z,99484.98
2023-03-16T04:13:10.103Z,99486.27
2023-03-16T04:15:38.900Z,99490.34
2023-03-16T04:18:13.681Z,99489.00
2023-03-16T04:20:42.400Z,99492.71
2023-03-16T04:23:11.155Z,99493.64
2023-03-16T04:25:39.739Z,99502.09
2023-03-16T04:28:08.196Z,99504.25
2023-03-16T04:30:37.621Z,99507.92
2023-03-16T04:33:19.314Z,99510.73
2023-03-16T04:35:48.540Z,99511.30
2023-03-16T04:38:17.671Z,99512.53
2023-03-16T04:40:53.207Z,99514.66
2023-03-16T04:43:23.863Z,99514.88
2023-03-16T04:45:54.137Z,99518.58
2023-03-16T04:48:23.285Z,99522.61
2023-03-16T04:50:51.586Z,99521.02
2023-03-16T04:53:19.973Z,99526.75
2023-03-16T04:55:49.350Z,99529.14
2023-03-16T04:58:17.855Z,99530.19
2023-03-16T05:00:46.127Z,99532.66
2023-03-16T05:03:22.424Z,99535.13
2023-03-16T05:05:51.165Z,99531.14
2023-03-16T05:08:19.561Z,99535.34
2023-03-16T05:10:49.821Z,99536.55
2023-03-16T05:13:18.831Z,99540.75
2023-03-16T05:15:48.301Z,99547.57
2023-03-16T05:18:24.816Z,99543.73
2023-03-16T05:20:55.978Z,99549.31
2023-03-16T05:23:24.609Z,99548.59
2023-03-16T05:26:01.150Z,99548.87
2023-03-16T05:28:31.988Z,99547.37
2023-03-16T05:31:06.977Z,99553.52
2023-03-16T05:33:44.708Z,99554.06
2023-03-16T05:36:16.093Z,99556.06
2023-03-16T05:38:46.133Z,99548.35
2023-03-16T05:41:21.507Z,99548.11
2023-03-16T05:44:04.564Z,99549.79
2023-03-16T05:46:54.317Z,99555.46
2023-03-16T05:49:22.667Z,99560.64
2023-03-16T05:51:51.200Z,99562.45
2023-03-16T05:54:19.477Z,99566.86
2023-03-16T05:56:47.950Z,99565.55
2023-03-16T05:59:18.168Z,99566.61
2023-03-16T06:01:50.242Z,99566.50
2023-03-16T06:04:19.439Z,99569.40
2023-03-16T06:06:47.842Z,99573.55
2023-03-16T06:09:22.461Z,99573.36
2023-03-16T06:11:50.725Z,99581.69
2023-03-16T06:14:19.170Z,99583.30
2023-03-16T06:16:47.754Z,99583.63
2023-03-16T06:19:16.173Z,99587.39
2023-03-16T06:21:44.419Z,99589.43
2023-03-16T06:24:13.359Z,99590.38
2023-03-16T06:26:41.642Z,99592.19
2023-03-16T06:29:12.068Z,99598.55
2023-03-16T06:31:41.033Z,99598.80
2023-03-16T06:34:09.561Z,99596.91
2023-03-16T06:36:39.805Z,99595.27
2023-03-16T06:39:10.692Z,99600.75
2023-03-16T06:41:42.789Z,99602.11
2023-03-16T06:44:12.225Z,99604.67
2023-03-16T06:46:46.800Z,99604.45
2023-03-16T06:49:15.057Z,99605.44
2023-03-16T06:51:43.270Z,99607.71
2023-03-16T06:54:11.837Z,99607.77
2023-03-16T06:56:41.063Z,99606.90
2023-03-16T06:59:09.308Z,99616.77
2023-03-16T07:01:38.088Z,99615.24
2023-03-16T07:04:06.441Z,99621.27
2023-03-16T07:06:35.440Z,99619.23
2023-03-16T07:09:05.049Z,99620.77
2023-03-16T07:11:33.616Z,99624.20
2023-03-16T07:14:03.171Z,99624.95
2023-03-16T07:16:32.548Z,99631.33
2023-03-16T07:19:05.102Z,99629.65
2023-03-16T07:21:40.795Z,99634.51
2023-03-16T07:24:13.067Z,99636.80
2023-03-16T07:26:42.299Z,99631.73
2023-03-16T07:29:12.384Z,99635.98
2023-03-16T07:31:40.746Z,99642.21
2023-03-16T07:34:12.046Z,99641.89
2023-03-16T07:36:44.263Z,99641.75
2023-03-16T07:39:14.430Z,99646.94
2023-03-16T07:42:00.437Z,99650.75
2023-03-16T07:44:52.141Z,99655.02
2023-03-16T07:47:20.448Z,99649.89
2023-03-16T07:49:49.591Z,99649.10
2023-03-16T07:52:18.723Z,99653.34
2023-03-16T07:54:46.980Z,99651.72
2023-03-16T07:57:15.110Z,99649.69
2023-03-16T07:59:44.526Z,99652.23
2023-03-16T08:02:17.468Z,99654.45
2023-03-16T08:04:46.412Z,99654.96
2023-03-16T08:07:15.932Z,99651.49
2023-03-16T08:09:58.351Z,99657.50
2023-03-16T08:12:33.972Z,99656.73
2023-03-16T08:15:02.817Z,99657.42
2023-03-16T08:17:33.686Z,99655.91
2023-03-16T08:20:11.178Z,99658.95
2023-03-16T08:22:39.590Z,99658.58
2023-03-16T08:25:10.719Z,99656.39
2023-03-16T08:27:39.494Z,99653.86
2023-03-16T08:30:11.724Z,99650.80
2023-03-16T08:32:42.559Z,99652.61
2023-03-16T08:35:16.824Z,99652.09
2023-03-16T08:37:46.427Z,99653.59
2023-03-16T08:40:16.788Z,99654.48
2023-03-16T08:42:45.158Z,99655.98
2023-03-16T08:45:14.312Z,99661.75
2023-03-16T08:47:44.296Z,99662.63
2023-03-16T08:50:13.576Z,99661.52
2023-03-16T08:52:43.147Z,99661.67
2023-03-16T08:55:11.571Z,99662.25
2023-03-16T08:57:39.640Z,99661.02
2023-03-16T09:00:13.431Z,99664.17
2023-03-16T09:02:42.818Z,99663.71
2023-03-16T09:05:13.509Z,99661.17
2023-03-16T09:07:43.793Z,99661.75
2023-03-16T09:10:16.088Z,99668.45
2023-03-16T09:12:45.355Z,99670.58
2023-03-16T09:15:14.087Z,99674.52
2023-03-16T09:17:45.191Z,99674.26
2023-03-16T09:20:34.752Z,99671.41
2023-03-16T09:23:03.750Z,99671.34
2023-03-16T09:25:32.577Z,99674.30
2023-03-16T09:28:01.112Z,99670.90
2023-03-16T09:30:29.901Z,99666.80
2023-03-16T09:32:58.820Z,99660.92
2023-03-16T09:35:27.177Z,99664.42
2023-03-16T09:38:05.570Z,99665.20
2023-03-16T09:40:36.868Z,99673.23
2023-03-16T09:43:17.438Z,99671.97
2023-03-16T09:45:51.836Z,99670.66
2023-03-16T09:48:21.360Z,99675.36
2023-03-16T09:50:51.104Z,99675.59
2023-03-16T09:53:25.163Z,99673.98
2023-03-16T09:55:58.763Z,99673.13
2023-03-16T09:58:27.281Z,99681.10
2023-03-16T10:00:55.381Z,99681.39
2023-03-16T10:03:36.563Z,99682.62
2023-03-16T10:06:09.593Z,99687.27
2023-03-16T10:08:41.385Z,99689.14
2023-03-16T10:11:18.736Z,99689.89
2023-03-16T10:13:54.004Z,99693.13
2023-03-16T10:16:31.826Z,99693.16
2023-03-16T10:19:12.814Z,99695.27
2023-03-16T10:21:42.137Z,99699.51
2023-03-16T10:24:34.239Z,99699.39
2023-03-16T10:27:04.809Z,99698.80
2023-03-16T10:29:37.070Z,99699.89
2023-03-16T10:32:14.435Z,99692.70
2023-03-16T10:34:53.304Z,99691.96
2023-03-16T10:37:21.746Z,99684.23
2023-03-16T10:39:49.970Z,99681.27
2023-03-16T10:42:21.426Z,99680.27
2023-03-16T10:44:57.030Z,99678.89
2023-03-16T10:47:31.558Z,99684.34
2023-03-16T10:50:12.597Z,99689.83
2023-03-16T10:52:45.451Z,99693.77
2023-03-16T10:55:22.709Z,99691.47
2023-03-16T10:57:56.309Z,99683.80
2023-03-16T11:00:36.991Z,99678.13
2023-03-16T11:03:38.873Z,99675.96
2023-03-16T11:06:20.638Z,99674.73
2023-03-16T11:08:49.105Z,99669.20
2023-03-16T11:11:27.429Z,99665.88
2023-03-16T11:13:59.463Z,99668.27
2023-03-16T11:16:38.389Z,99671.48
2023-03-16T11:19:21.709Z,99671.11
2023-03-16T11:22:23.423Z,99669.73
2023-03-16T11:25:01.045Z,99672.23
2023-03-16T11:27:38.799Z,99673.05
2023-03-16T11:30:20.157Z,99667.81
2023-03-16T11:32:54.167Z,99664.65
2023-03-16T11:35:59.357Z,99661.73
2023-03-16T11:38:44.239Z,99662.18
2023-03-16T11:41:33.725Z,99665.69
2023-03-16T11:44:20.231Z,99671.83
2023-03-16T11:47:02.328Z,99673.40
2023-03-16T11:49:42.946Z,99676.67
2023-03-16T11:52:41.932Z,99681.14
2023-03-16T11:55:35.028Z,99678.11
2023-03-16T11:58:32.505Z,99686.40
2023-03-16T12:01:16.076Z,99687.01
2023-03-16T12:03:55.193Z,99683.69
2023-03-16T12:06:35.644Z,99683.42
2023-03-16T12:09:19.881Z,99679.48
2023-03-16T12:11:57.857Z,99680.69
2023-03-16T12:15:08.367Z,99675.46
2023-03-16T12:17:37.994Z,99674.94
2023-03-16T12:20:43.374Z,99675.94
2023-03-16T12:23:22.802Z,99679.96
2023-03-16T12:25:53.108Z,99680.81
2023-03-16T12:28:24.100Z,99677.46
2023-03-16T12:31:37.645Z,99677.34
2023-03-16T12:34:19.553Z,99676.65
2023-03-16T12:36:57.731Z,99674.02
2023-03-16T12:39:47.442Z,99673.85
2023-03-16T12:42:15.682Z,99676.30
2023-03-16T12:44:48.067Z,99681.44
2023-03-16T12:47:27.324Z,99678.04
2023-03-16T12:50:06.190Z,99679.83
2023-03-16T12:52:43.094Z,99682.80
2023-03-16T12:55:16.603Z,99683.45
2023-03-16T12:57:48.364Z,99681.17
2023-03-16T13:00:17.620Z,99684.40
2023-03-16T13:02:53.792Z,99680.02
2023-03-16T13:05:31.947Z,99677.41
2023-03-16T13:08:09.053Z,99680.22
2023-03-16T13:10:38.793Z,99678.62
2023-03-16T13:13:16.360Z,99677.59
2023-03-16T13:15:49.672Z,99675.02
2023-03-16T13:18:17.879Z,99675.06
2023-03-16T13:20:51.069Z,99675.77
2023-03-16T13:23:20.856Z,99674.19
2023-03-16T13:26:22.896Z,99678.02
2023-03-16T13:28:54.399Z,99678.02
2023-03-16T13:31:45.707Z,99676.96
2023-03-16T13:34:22.508Z,99676.02
2023-03-16T13:36:55.573Z,99670.86
2023-03-16T13:39:31.972Z,99673.12
2023-03-16T13:42:18.182Z,99676.70
2023-03-16T13:44:47.007Z,99678.16
2023-03-16T13:47:19.476Z,99674.79
2023-03-16T13:49:56.979Z,99675.65
2023-03-16T13:52:29.474Z,99678.38
2023-03-16T13:54:59.404Z,99682.69
2023-03-16T13:57:38.251Z,99683.65
2023-03-16T14:00:20.651Z,99686.74
2023-03-16T14:02:56.827Z,99685.25
2023-03-16T14:05:31.308Z,99684.64
2023-03-16T14:08:04.908Z,99687.29
2023-03-16T14:10:37.833Z,99693.98
2023-03-16T14:13:22.465Z,99692.52
2023-03-16T14:15:51.107Z,99689.85
2023-03-16T14:18:32.170Z,99688.04
2023-03-16T14:21:00.313Z,99684.22
2023-03-16T14:23:35.819Z,99688.70
2023-03-16T14:26:12.696Z,99689.30
2023-03-16T14:28:42.564Z,99688.62
2023-03-16T14:31:13.218Z,99695.65
2023-03-16T14:34:30.820Z,99698.55
2023-03-16T14:37:13.803Z,99698.23
2023-03-16T14:39:42.887Z,99700.21
2023-03-16T14:42:32.264Z,99701.59
2023-03-16T14:45:09.925Z,99705.15
2023-03-16T14:47:42.400Z,99706.52
2023-03-16T14:50:23.872Z,99709.05
2023-03-16T14:52:54.837Z,99710.56
2023-03-16T14:55:24.016Z,99712.65
2023-03-16T14:57:53.255Z,99710.55
2023-03-16T15:00:22.988Z,99709.28
2023-03-16T15:02:59.497Z,99708.09
2023-03-16T15:05:35.086Z,99715.98
2023-03-16T15:08:06.700Z,99718.20
2023-03-16T15:10:35.803Z,99718.16
2023-03-16T15:13:14.093Z,99717.67
2023-03-16T15:15:42.741Z,99718.64
2023-03-16T15:18:11.111Z,99721.77
2023-03-16T15:20:43.375Z,99719.55
2023-03-16T15:23:15.773Z,99719.64
2023-03-16T15:25:45.013Z,99721.48
2023-03-16T15:28:21.833Z,99719.06
2023-03-16T15:30:58.080Z,99721.80
2023-03-16T15:33:27.292Z,99719.95
2023-03-16T15:36:22.466Z,99722.05
2023-03-16T15:38:53.747Z,99725.08
2023-03-16T15:41:23.304Z,99724.12
2023-03-16T15:43:52.742Z,99727.54
2023-03-16T15:46:21.278Z,99728.27
2023-03-16T15:48:49.489Z,99729.30
2023-03-16T15:51:23.051Z,99729.15
2023-03-16T15:53:59.559Z,99731.59
2023-03-16T15:56:32.335Z,99731.24
2023-03-16T15:59:06.123Z,99733.17
2023-03-16T16:01:45.105Z,99737.44
2023-03-16T16:04:19.950Z,99741.55
2023-03-16T16:06:48.830Z,99741.19
2023-03-16T16:09:17.231Z,99741.50
2023-03-16T16:11:47.238Z,99745.98
2023-03-16T16:14:18.294Z,99748.88
2023-03-16T16:16:46.833Z,99752.98
2023-03-16T16:19:16.174Z,99752.66
2023-03-16T16:21:44.666Z,99758.46
2023-03-16T16:24:13.008Z,99759.55
2023-03-16T16:26:53.383Z,99765.71
2023-03-16T16:29:30.679Z,99765.59
2023-03-16T16:31:59.252Z,99768.30
2023-03-16T16:34:28.068Z,99769.59
2023-03-16T16:36:57.388Z,99775.27
2023-03-16T16:39:25.631Z,99777.00
2023-03-16T16:41:56.447Z,99774.61
2023-03-16T16:44:27.812Z,99779.20
2023-03-16T16:46:56.656Z,99780.30
2023-03-16T16:49:28.081Z,99782.48
2023-03-16T16:51:58.289Z,99786.73
2023-03-16T16:54:29.410Z,99790.85
2023-03-16T16:56:59.328Z,99790.91
2023-03-16T16:59:36.966Z,99790.82
2023-03-16T17:02:22.416Z,99795.30
2023-03-16T17:04:53.667Z,99804.42
2023-03-16T17:07:21.960Z,99803.86
2023-03-16T17:09:50.918Z,99807.06
2023-03-16T17:12:22.805Z,99810.44
2023-03-16T17:14:51.687Z,99810.10
2023-03-16T17:17:20.279Z,99808.30
2023-03-16T17:19:48.636Z,99806.31
2023-03-16T17:22:24.574Z,99811.51
2023-03-16T17:24:54.007Z,99814.77
2023-03-16T17:27:27.196Z,99816.11
2023-03-16T17:29:57.069Z,99817.48
2023-03-16T17:32:25.780Z,99822.17
2023-03-16T17:34:53.951Z,99820.72
2023-03-16T17:37:23.326Z,99815.67
2023-03-16T17:39:52.239Z,99822.16
2023-03-16T17:42:22.606Z,99827.40
2023-03-16T17:44:52.261Z,99827.57
2023-03-16T17:47:23.106Z,99829.28
2023-03-16T17:49:51.965Z,99838.20
2023-03-16T17:52:25.829Z,99838.54
2023-03-16T17:54:54.269Z,99842.02
2023-03-16T17:57:32.566Z,99845.11
2023-03-16T18:00:02.286Z,99842.63
2023-03-16T18:02:39.706Z,99845.06
2023-03-16T18:05:17.777Z,99850.26
2023-03-16T18:07:46.785Z,99848.73
2023-03-16T18:10:24.309Z,99851.16
2023-03-16T18:12:58.062Z,99850.75
2023-03-16T18:15:29.444Z,99852.13
2023-03-16T18:17:58.576Z,99853.34
2023-03-16T18:20:34.410Z,99853.15
2023-03-16T18:23:14.219Z,99856.77
2023-03-16T18:25:43.156Z,99859.91
2023-03-16T18:28:12.550Z,99859.33
2023-03-16T18:30:44.401Z,99858.23
2023-03-16T18:33:23.752Z,99854.83
2023-03-16T18:35:53.783Z,99858.30
2023-03-16T18:38:40.459Z,99861.46
2023-03-16T18:41:20.958Z,99864.09
2023-03-16T18:43:50.801Z,99865.34
2023-03-16T18:46:25.645Z,99869.07
2023-03-16T18:48:57.150Z,99875.62
2023-03-16T18:51:25.766Z,99878.10
2023-03-16T18:53:55.069Z,99881.90
2023-03-16T18:56:28.572Z,99886.12
2023-03-16T18:58:57.059Z,99888.02
2023-03-16T19:01:33.200Z,99890.25
2023-03-16T19:04:02.177Z,99891.08
2023-03-16T19:06:33.127Z,99893.83
2023-03-16T19:09:32.040Z,99897.30
2023-03-16T19:12:00.300Z,99899.58
2023-03-16T19:14:32.308Z,99900.95
2023-03-16T19:17:01.664Z,99906.02
2023-03-16T19:19:30.074Z,99906.65
2023-03-16T19:22:09.891Z,99905.91
2023-03-16T19:24:46.958Z,99907.95
2023-03-16T19:27:25.548Z,99907.34
2023-03-16T19:29:54.762Z,99905.52
2023-03-16T19:32:23.284Z,99907.75
2023-03-16T19:34:51.460Z,99911.98
2023-03-16T19:37:20.019Z,99913.76
2023-03-16T19:39:49.144Z,99915.25
2023-03-16T19:42:25.913Z,99917.79
2023-03-16T19:44:54.274Z,99917.02
2023-03-16T19:47:30.874Z,99913.30
2023-03-16T19:49:59.868Z,99925.53
2023-03-16T19:52:31.340Z,99927.48
2023-03-16T19:54:59.621Z,99925.52
2023-03-16T19:57:28.975Z,99928.08
2023-03-16T19:59:59.343Z,99925.20
2023-03-16T20:02:34.782Z,99930.91
2023-03-16T20:05:03.719Z,99928.75
2023-03-16T20:07:37.822Z,99929.36
2023-03-16T20:10:06.711Z,99931.51
2023-03-16T20:12:42.345Z,99932.78
2023-03-16T20:15:16.849Z,99941.78
2023-03-16T20:17:46.383Z,99941.50
2023-03-16T20:20:29.137Z,99940.16
2023-03-16T20:22:59.653Z,99945.10
2023-03-16T20:25:33.194Z,99948.63
2023-03-16T20:28:03.871Z,99949.03
2023-03-16T20:30:32.817Z,99953.29
2023-03-16T20:33:01.273Z,99950.72
2023-03-16T20:35:33.473Z,99949.02
2023-03-16T20:38:01.852Z,99949.59
2023-03-16T20:40:30.017Z,99951.55
2023-03-16T20:42:58.240Z,99949.83
2023-03-16T20:45:29.030Z,99948.32
2023-03-16T20:47:57.660Z,99951.52
2023-03-16T20:50:29.270Z,99946.66
2023-03-16T20:52:57.980Z,99945.83
2023-03-16T20:55:29.274Z,99947.45
2023-03-16T20:57:58.658Z,99952.89
2023-03-16T21:00:33.305Z,99950.52
2023-03-16T21:03:05.000Z,99954.77
2023-03-16T21:05:33.925Z,99957.27
2023-03-16T21:08:02.199Z,99961.64
2023-03-16T21:10:30.838Z,99957.83
2023-03-16T21:12:59.133Z,99958.90
2023-03-16T21:15:32.352Z,99960.35
2023-03-16T21:18:03.553Z,99959.91
2023-03-16T21:20:33.857Z,99960.13
2023-03-16T21:23:02.859Z,99960.88
2023-03-16T21:25:40.654Z,99958.65
2023-03-16T21:28:12.611Z,99958.33
2023-03-16T21:30:47.934Z,99959.25
2023-03-16T21:33:39.884Z,99957.39
2023-03-16T21:36:16.819Z,99957.27
2023-03-16T21:38:46.114Z,99955.38
2023-03-16T21:41:15.007Z,99955.23
2023-03-16T21:43:44.187Z,99955.05
2023-03-16T21:46:21.462Z,99955.08
2023-03-16T21:48:52.769Z,99958.05
2023-03-16T21:51:25.306Z,99954.80
2023-03-16T21:53:53.561Z,99956.71
2023-03-16T21:56:25.372Z,99960.55
2023-03-16T21:58:54.262Z,99958.67
2023-03-16T22:01:30.663Z,99958.86
2023-03-16T22:04:13.822Z,99959.77
2023-03-16T22:06:43.475Z,99959.27
2023-03-16T22:09:20.801Z,99959.64
2023-03-16T22:11:49.104Z,99958.45
2023-03-16T22:14:17.228Z,99959.20
2023-03-16T22:16:45.972Z,99962.54
2023-03-16T22:19:15.898Z,99964.50
2023-03-16T22:21:45.105Z,99969.40
2023-03-16T22:24:19.928Z,99972.92
2023-03-16T22:26:49.164Z,99972.27
2023-03-16T22:29:29.315Z,99972.66
2023-03-16T22:32:07.676Z,99969.19
2023-03-16T22:34:43.273Z,99968.52
2023-03-16T22:37:16.363Z,99969.08
2023-03-16T22:39:44.902Z,99969.45
2023-03-16T22:42:31.289Z,99970.38
2023-03-16T22:45:00.777Z,99971.13
2023-03-16T22:47:35.351Z,99968.73
2023-03-16T22:50:03.650Z,99971.39
2023-03-16T22:52:35.226Z,99969.67
2023-03-16T22:55:04.562Z,99968.13
2023-03-16T22:57:33.148Z,99965.55
2023-03-16T23:00:11.319Z,99962.45
2023-03-16T23:02:40.110Z,99960.76
2023-03-16T23:05:22.457Z,99959.39
2023-03-16T23:07:52.072Z,99961.33
2023-03-16T23:10:23.517Z,99960.67
2023-03-16T23:12:52.577Z,99955.82
2023-03-16T23:15:25.051Z,99959.82
2023-03-16T23:17:53.289Z,99953.25
2023-03-16T23:20:31.876Z,99954.32
2023-03-16T23:23:00.441Z,99958.33
2023-03-16T23:25:28.570Z,99958.89
2023-03-16T23:27:58.466Z,99956.98
2023-03-16T23:30:26.752Z,99956.48
2023-03-16T23:32:55.531Z,99954.95
2023-03-16T23:35:27.522Z,99959.13
2023-03-16T23:37:56.455Z,99964.04
2023-03-16T23:40:28.087Z,99961.61
2023-03-16T23:43:00.040Z,99964.06
2023-03-16T23:45:42.969Z,99956.60
2023-03-16T23:48:15.407Z,99957.15
2023-03-16T23:50:44.912Z,99957.89
2023-03-16T23:53:18.035Z,99954.27
2023-03-16T23:55:46.962Z,99956.04
2023-03-16T23:58:18.689Z,99955.90
